sensor_id;sensor_type;location;lat;lon;timestamp;pressure;altitude;pressure_sealevel;temperature;humidity
44675;BME280;30388;52.038;-1.478;2023-01-10T00:01:30;65011.37;;;3.17;100.00
44675;BME280;30388;52.038;-1.478;2023-01-10T00:03:57;64931.45;;;2.64;100.00
44675;BME280;30388;52.038;-1.478;2023-01-10T00:06:25;65012.18;;;3.67;100.00
44675;BME280;30388;52.038;-1.478;2023-01-10T00:08:52;65024.44;;;3.61;100.00
44675;BME280;30388;52.038;-1.478;2023-01-10T00:11:20;64996.36;;;3.47;100.00
44675;BME280;30388;52.038;-1.478;2023-01-10T00:13:47;64925.64;;;2.57;100.00
44675;BME280;30388;52.038;-1.478;2023-01-10T00:16:14;64993.08;;;2.94;100.00
44675;BME280;30388;52.038;-1.478;2023-01-10T00:18:42;64940.38;;;2.76;100.00
44675;BME280;30388;52.038;-1.478;2023-01-10T00:21:09;64914.28;;;2.42;100.00
44675;BME280;30388;52.038;-1.478;2023-01-10T00:23:36;64919.63;;;2.71;100.00
44675;BME280;30388;52.038;-1.478;2023-01-10T00:26:04;64973.76;;;3.18;100.00
44675;BME280;30388;52.038;-1.478;2023-01-10T00:28:31;65097.55;;;4.27;100.00
44675;BME280;30388;52.038;-1.478;2023-01-10T00:30:58;65043.83;;;3.58;100.00
44675;BME280;30388;52.038;-1.478;2023-01-10T00:33:26;65066.32;;;3.87;100.00
44675;BME280;30388;52.038;-1.478;2023-01-10T00:35:54;65078.90;;;4.03;100.00
44675;BME280;30388;52.038;-1.478;2023-01-10T00:38:21;65109.03;;;4.41;100.00
44675;BME280;30388;52.038;-1.478;2023-01-10T00:40:49;65008.94;;;3.14;100.00
44675;BME280;30388;52.038;-1.478;2023-01-10T00:43:15;65108.46;;;4.40;100.00
44675;BME280;30388;52.038;-1.478;2023-01-10T00:45:44;65177.36;;;4.83;100.00
44675;BME280;30388;52.038;-1.478;2023-01-10T00:48:11;65071.04;;;3.92;100.00
44675;BME280;30388;52.038;-1.478;2023-01-10T00:50:38;65124.06;;;4.60;100.00
44675;BME280;30388;52.038;-1.478;2023-01-10T00:53:06;65100.88;;;4.08;100.00
44675;BME280;30388;52.038;-1.478;2023-01-10T00:55:35;65149.89;;;4.70;100.00
44675;BME280;30388;52.038;-1.478;2023-01-10T00:58:02;65123.89;;;4.59;100.00
44675;BME280;30388;52.038;-1.478;2023-01-10T01:00:30;65044.40;;;3.59;100.00
44675;BME280;30388;52.038;-1.478;2023-01-10T01:02:57;65069.02;;;3.90;100.00
44675;BME280;30388;52.038;-1.478;2023-01-10T01:05:24;64987.39;;;2.87;100.00
44675;BME280;30388;52.038;-1.478;2023-01-10T01:07:52;65053.08;;;3.70;100.00
44675;BME280;30388;52.038;-1.478;2023-01-10T01:10:19;65158.27;;;5.04;100.00
44675;BME280;30388;52.038;-1.478;2023-01-10T01:12:46;65131.55;;;4.70;100.00
44675;BME280;30388;52.038;-1.478;2023-01-10T01:15:14;65163.67;;;4.66;100.00
44675;BME280;30388;52.038;-1.478;2023-01-10T01:17:41;65170.91;;;4.98;100.00
44675;BME280;30388;52.038;-1.478;2023-01-10T01:20:09;65163.70;;;4.88;100.00
44675;BME280;30388;52.038;-1.478;2023-01-10T01:22:37;65189.00;;;5.20;100.00
44675;BME280;30388;52.038;-1.478;2023-01-10T01:25:04;65225.72;;;5.45;100.00
44675;BME280;30388;52.038;-1.478;2023-01-10T01:27:31;65263.87;;;5.66;100.00
44675;BME280;30388;52.038;-1.478;2023-01-10T01:29:59;65235.80;;;5.58;100.00
44675;BME280;30388;52.038;-1.478;2023-01-10T01:32:26;65223.12;;;5.64;100.00
44675;BME280;30388;52.038;-1.478;2023-01-10T01:34:53;65177.70;;;4.84;100.00
44675;BME280;30388;52.038;-1.478;2023-01-10T01:37:21;65145.03;;;4.65;100.00
44675;BME280;30388;52.038;-1.478;2023-01-10T01:39:49;65068.14;;;3.89;100.00
44675;BME280;30388;52.038;-1.478;2023-01-10T01:42:22;65108.66;;;4.40;100.00
44675;BME280;30388;52.038;-1.478;2023-01-10T01:45:57;65161.80;;;4.86;100.00
44675;BME280;30388;52.038;-1.478;2023-01-10T01:48:32;65247.73;;;5.72;100.00
44675;BME280;30388;52.038;-1.478;2023-01-10T01:51:06;65240.69;;;5.64;100.00
44675;BME280;30388;52.038;-1.478;2023-01-10T01:53:39;65207.00;;;5.21;100.00
44675;BME280;30388;52.038;-1.478;2023-01-10T01:56:12;65298.88;;;6.37;100.00
44675;BME280;30388;52.038;-1.478;2023-01-10T01:58:44;65332.62;;;6.32;100.00
44675;BME280;30388;52.038;-1.478;2023-01-10T02:01:15;65361.88;;;6.69;100.00
44675;BME280;30388;52.038;-1.478;2023-01-10T02:03:48;65308.76;;;6.01;100.00
44675;BME280;30388;52.038;-1.478;2023-01-10T02:06:17;65363.05;;;6.70;100.00
44675;BME280;30388;52.038;-1.478;2023-01-10T02:08:52;65418.58;;;7.14;100.00
44675;BME280;30388;52.038;-1.478;2023-01-10T02:11:22;65336.10;;;6.09;100.00
44675;BME280;30388;52.038;-1.478;2023-01-10T02:13:50;65352.53;;;6.30;100.00
44675;BME280;30388;52.038;-1.478;2023-01-10T02:16:18;65285.40;;;5.72;100.00
44675;BME280;30388;52.038;-1.478;2023-01-10T02:18:45;65309.91;;;6.03;100.00
44675;BME280;30388;52.038;-1.478;2023-01-10T02:21:22;65343.05;;;6.45;100.00
44675;BME280;30388;52.038;-1.478;2023-01-10T02:26:57;65205.49;;;5.63;100.00
44675;BME280;30388;52.038;-1.478;2023-01-10T02:29:48;65261.16;;;5.40;100.00
44675;BME280;30388;52.038;-1.478;2023-01-10T02:32:33;65326.75;;;6.73;100.00
44675;BME280;30388;52.038;-1.478;2023-01-10T02:35:14;65322.82;;;6.18;100.00
44675;BME280;30388;52.038;-1.478;2023-01-10T02:37:58;65324.25;;;6.21;100.00
44675;BME280;30388;52.038;-1.478;2023-01-10T02:40:38;65279.05;;;6.12;100.00
44675;BME280;30388;52.038;-1.478;2023-01-10T02:43:13;65269.66;;;5.74;100.00
44675;BME280;30388;52.038;-1.478;2023-01-10T02:45:45;65299.68;;;6.12;100.00
44675;BME280;30388;52.038;-1.478;2023-01-10T02:48:15;65352.78;;;6.79;100.00
44675;BME280;30388;52.038;-1.478;2023-01-10T02:50:51;65369.05;;;6.77;100.00
44675;BME280;30388;52.038;-1.478;2023-01-10T02:53:25;65315.50;;;6.09;100.00
44675;BME280;30388;52.038;-1.478;2023-01-10T02:56:11;65255.55;;;5.82;100.00
44675;BME280;30388;52.038;-1.478;2023-01-10T02:58:52;65333.86;;;6.34;100.00
44675;BME280;30388;52.038;-1.478;2023-01-10T03:01:31;65346.23;;;6.49;100.00
44675;BME280;30388;52.038;-1.478;2023-01-10T03:04:07;65255.78;;;5.56;100.00
44675;BME280;30388;52.038;-1.478;2023-01-10T03:06:43;65233.65;;;5.28;100.00
44675;BME280;30388;52.038;-1.478;2023-01-10T03:09:16;65239.65;;;5.85;100.00
44675;BME280;30388;52.038;-1.478;2023-01-10T03:11:50;65244.41;;;5.41;100.00
44675;BME280;30388;52.038;-1.478;2023-01-10T03:14:22;65271.10;;;5.76;100.00
44675;BME280;30388;52.038;-1.478;2023-01-10T03:16:54;65221.47;;;5.39;100.00
44675;BME280;30388;52.038;-1.478;2023-01-10T03:19:25;65119.48;;;4.54;100.00
44675;BME280;30388;52.038;-1.478;2023-01-10T03:21:56;65149.54;;;4.93;100.00
44675;BME280;30388;52.038;-1.478;2023-01-10T03:24:30;65111.93;;;4.23;100.00
44675;BME280;30388;52.038;-1.478;2023-01-10T03:27:02;65169.10;;;5.18;100.00
44675;BME280;30388;52.038;-1.478;2023-01-10T03:29:37;65106.52;;;4.38;100.00
44675;BME280;30388;52.038;-1.478;2023-01-10T03:32:10;65131.88;;;4.47;100.00
44675;BME280;30388;52.038;-1.478;2023-01-10T03:34:38;65049.27;;;3.64;100.00
44675;BME280;30388;52.038;-1.478;2023-01-10T03:37:11;65114.71;;;4.75;100.00
44675;BME280;30388;52.038;-1.478;2023-01-10T03:39:44;65089.56;;;4.17;100.00
44675;BME280;30388;52.038;-1.478;2023-01-10T03:42:22;65115.57;;;4.49;100.00
44675;BME280;30388;52.038;-1.478;2023-01-10T03:44:58;65194.53;;;5.50;100.00
44675;BME280;30388;52.038;-1.478;2023-01-10T03:47:32;65069.56;;;4.17;100.00
44675;BME280;30388;52.038;-1.478;2023-01-10T03:50:05;65013.07;;;3.67;100.00
44675;BME280;30388;52.038;-1.478;2023-01-10T03:52:35;65151.23;;;4.94;100.00
44675;BME280;30388;52.038;-1.478;2023-01-10T03:55:03;65167.02;;;4.92;100.00
44675;BME280;30388;52.038;-1.478;2023-01-10T03:57:32;65142.20;;;4.83;100.00
44675;BME280;30388;52.038;-1.478;2023-01-10T03:59:59;65124.67;;;4.61;100.00
44675;BME280;30388;52.038;-1.478;2023-01-10T04:02:28;65162.59;;;5.09;100.00
44675;BME280;30388;52.038;-1.478;2023-01-10T04:04:58;65123.02;;;4.59;100.00
44675;BME280;30388;52.038;-1.478;2023-01-10T04:07:26;65144.71;;;4.86;100.00
44675;BME280;30388;52.038;-1.478;2023-01-10T04:09:53;65197.82;;;5.09;100.00
44675;BME280;30388;52.038;-1.478;2023-01-10T04:12:21;65159.72;;;4.83;100.00
44675;BME280;30388;52.038;-1.478;2023-01-10T04:14:49;65134.17;;;5.00;100.00
44675;BME280;30388;52.038;-1.478;2023-01-10T04:17:17;65117.11;;;4.51;100.00
44675;BME280;30388;52.038;-1.478;2023-01-10T04:19:44;65164.51;;;5.11;100.00
44675;BME280;30388;52.038;-1.478;2023-01-10T04:22:12;65157.04;;;5.02;100.00
44675;BME280;30388;52.038;-1.478;2023-01-10T04:24:39;65087.22;;;4.13;100.00
44675;BME280;30388;52.038;-1.478;2023-01-10T04:27:06;65070.22;;;3.92;100.00
44675;BME280;30388;52.038;-1.478;2023-01-10T04:29:33;65162.36;;;5.09;100.00
44675;BME280;30388;52.038;-1.478;2023-01-10T04:32:01;65012.61;;;3.44;100.00
44675;BME280;30388;52.038;-1.478;2023-01-10T04:34:28;65106.79;;;4.38;100.00
44675;BME280;30388;52.038;-1.478;2023-01-10T04:36:55;65065.94;;;3.86;100.00
44675;BME280;30388;52.038;-1.478;2023-01-10T04:39:23;65093.88;;;4.21;100.00
44675;BME280;30388;52.038;-1.478;2023-01-10T04:41:50;65076.02;;;3.99;100.00
44675;BME280;30388;52.038;-1.478;2023-01-10T04:44:17;65124.35;;;4.87;100.00
44675;BME280;30388;52.038;-1.478;2023-01-10T04:46:45;65114.85;;;4.48;100.00
44675;BME280;30388;52.038;-1.478;2023-01-10T04:49:12;65099.57;;;4.55;100.00
44675;BME280;30388;52.038;-1.478;2023-01-10T04:51:39;65120.71;;;4.56;100.00
44675;BME280;30388;52.038;-1.478;2023-01-10T04:54:06;65164.46;;;5.11;100.00
44675;BME280;30388;52.038;-1.478;2023-01-10T04:56:33;65118.40;;;4.53;100.00
44675;BME280;30388;52.038;-1.478;2023-01-10T04:59:01;65153.56;;;4.53;100.00
44675;BME280;30388;52.038;-1.478;2023-01-10T05:01:28;65125.03;;;4.60;100.00
44675;BME280;30388;52.038;-1.478;2023-01-10T05:03:55;65148.70;;;4.69;100.00
44675;BME280;30388;52.038;-1.478;2023-01-10T05:06:23;65151.12;;;4.94;100.00
44675;BME280;30388;52.038;-1.478;2023-01-10T05:08:50;65179.07;;;5.29;100.00
44675;BME280;30388;52.038;-1.478;2023-01-10T05:11:17;65210.49;;;5.26;100.00
44675;BME280;30388;52.038;-1.478;2023-01-10T05:13:45;65183.58;;;5.36;100.00
44675;BME280;30388;52.038;-1.478;2023-01-10T05:16:12;65019.89;;;3.54;100.00
44675;BME280;30388;52.038;-1.478;2023-01-10T05:18:39;65132.93;;;4.71;100.00
44675;BME280;30388;52.038;-1.478;2023-01-10T05:21:08;65086.09;;;4.11;100.00
44675;BME280;30388;52.038;-1.478;2023-01-10T05:23:37;65101.64;;;4.31;100.00
44675;BME280;30388;52.038;-1.478;2023-01-10T05:26:06;65094.61;;;4.23;100.00
44675;BME280;30388;52.038;-1.478;2023-01-10T05:28:33;65101.60;;;4.31;100.00
44675;BME280;30388;52.038;-1.478;2023-01-10T05:31:01;65123.56;;;4.59;100.00
44675;BME280;30388;52.038;-1.478;2023-01-10T05:33:28;65187.60;;;5.41;100.00
44675;BME280;30388;52.038;-1.478;2023-01-10T05:35:56;65096.65;;;4.25;100.00
44675;BME280;30388;52.038;-1.478;2023-01-10T05:38:22;65080.34;;;4.03;100.00
44675;BME280;30388;52.038;-1.478;2023-01-10T05:40:54;65052.13;;;4.17;100.00
44675;BME280;30388;52.038;-1.478;2023-01-10T05:43:22;65041.14;;;4.04;100.00
44675;BME280;30388;52.038;-1.478;2023-01-10T05:45:49;65099.65;;;4.55;100.00
44675;BME280;30388;52.038;-1.478;2023-01-10T05:48:16;65149.37;;;4.92;100.00
44675;BME280;30388;52.038;-1.478;2023-01-10T05:50:44;65110.59;;;4.69;100.00
44675;BME280;30388;52.038;-1.478;2023-01-10T05:53:11;65134.49;;;4.73;100.00
44675;BME280;30388;52.038;-1.478;2023-01-10T05:55:38;65130.25;;;4.67;100.00
44675;BME280;30388;52.038;-1.478;2023-01-10T05:58:05;65170.73;;;4.97;100.00
44675;BME280;30388;52.038;-1.478;2023-01-10T06:00:32;65196.18;;;5.52;100.00
44675;BME280;30388;52.038;-1.478;2023-01-10T06:03:00;65170.60;;;5.19;100.00
44675;BME280;30388;52.038;-1.478;2023-01-10T06:05:27;65167.84;;;4.93;100.00
44675;BME280;30388;52.038;-1.478;2023-01-10T06:07:54;65181.95;;;5.12;100.00
44675;BME280;30388;52.038;-1.478;2023-01-10T06:10:22;65203.93;;;5.39;100.00
44675;BME280;30388;52.038;-1.478;2023-01-10T06:12:49;65263.94;;;5.94;100.00
44675;BME280;30388;52.038;-1.478;2023-01-10T06:15:16;65229.20;;;5.72;100.00
44675;BME280;30388;52.038;-1.478;2023-01-10T06:17:43;65204.65;;;4.91;100.00
44675;BME280;30388;52.038;-1.478;2023-01-10T06:20:12;65199.21;;;5.33;100.00
44675;BME280;30388;52.038;-1.478;2023-01-10T06:22:39;65210.28;;;5.47;100.00
44675;BME280;30388;52.038;-1.478;2023-01-10T06:25:08;65194.36;;;5.05;100.00
44675;BME280;30388;52.038;-1.478;2023-01-10T06:27:37;65159.44;;;5.05;100.00
44675;BME280;30388;52.038;-1.478;2023-01-10T06:30:06;65156.50;;;4.80;100.00
44675;BME280;30388;52.038;-1.478;2023-01-10T06:32:35;65053.53;;;3.69;100.00
44675;BME280;30388;52.038;-1.478;2023-01-10T06:35:03;65147.18;;;4.89;100.00
44675;BME280;30388;52.038;-1.478;2023-01-10T06:37:31;65152.98;;;4.97;100.00
44675;BME280;30388;52.038;-1.478;2023-01-10T06:39:58;65082.67;;;4.33;100.00
44675;BME280;30388;52.038;-1.478;2023-01-10T06:42:25;65114.59;;;4.48;100.00
44675;BME280;30388;52.038;-1.478;2023-01-10T06:44:52;65145.42;;;4.87;100.00
44675;BME280;30388;52.038;-1.478;2023-01-10T06:47:20;65075.63;;;3.98;100.00
44675;BME280;30388;52.038;-1.478;2023-01-10T06:49:47;65145.66;;;4.87;100.00
44675;BME280;30388;52.038;-1.478;2023-01-10T06:52:14;65105.47;;;4.37;100.00
44675;BME280;30388;52.038;-1.478;2023-01-10T06:54:42;65104.41;;;4.35;100.00
44675;BME280;30388;52.038;-1.478;2023-01-10T06:57:09;65071.94;;;4.43;100.00
44675;BME280;30388;52.038;-1.478;2023-01-10T06:59:36;65079.87;;;4.52;100.00
44675;BME280;30388;52.038;-1.478;2023-01-10T07:02:04;65092.53;;;4.69;100.00
44675;BME280;30388;52.038;-1.478;2023-01-10T07:04:31;65092.57;;;4.20;100.00
44675;BME280;30388;52.038;-1.478;2023-01-10T07:06:58;65066.55;;;4.13;100.00
44675;BME280;30388;52.038;-1.478;2023-01-10T07:09:27;65027.89;;;3.86;100.00
44675;BME280;30388;52.038;-1.478;2023-01-10T07:11:54;65055.29;;;3.99;100.00
44675;BME280;30388;52.038;-1.478;2023-01-10T07:14:21;65082.42;;;4.56;100.00
44675;BME280;30388;52.038;-1.478;2023-01-10T07:16:49;65076.72;;;4.00;100.00
44675;BME280;30388;52.038;-1.478;2023-01-10T07:19:16;65039.26;;;4.01;100.00
44675;BME280;30388;52.038;-1.478;2023-01-10T07:21:43;64997.84;;;3.48;100.00
44675;BME280;30388;52.038;-1.478;2023-01-10T07:24:10;65021.32;;;3.78;100.00
44675;BME280;30388;52.038;-1.478;2023-01-10T07:26:38;65023.77;;;3.82;100.00
44675;BME280;30388;52.038;-1.478;2023-01-10T07:29:05;65017.82;;;3.52;100.00
44675;BME280;30388;52.038;-1.478;2023-01-10T07:31:32;64928.41;;;3.09;100.00
44675;BME280;30388;52.038;-1.478;2023-01-10T07:33:59;65012.46;;;3.67;100.00
44675;BME280;30388;52.038;-1.478;2023-01-10T07:36:27;64999.26;;;3.50;100.00
44675;BME280;30388;52.038;-1.478;2023-01-10T07:38:54;65001.31;;;3.75;100.00
44675;BME280;30388;52.038;-1.478;2023-01-10T07:41:21;65001.51;;;3.53;100.00
44675;BME280;30388;52.038;-1.478;2023-01-10T07:43:49;65004.21;;;3.79;100.00
44675;BME280;30388;52.038;-1.478;2023-01-10T07:46:16;65054.87;;;4.22;100.00
44675;BME280;30388;52.038;-1.478;2023-01-10T07:48:43;65044.88;;;4.08;100.00
44675;BME280;30388;52.038;-1.478;2023-01-10T07:51:11;65015.52;;;3.71;100.00
44675;BME280;30388;52.038;-1.478;2023-01-10T07:53:37;64993.03;;;3.42;100.00
44675;BME280;30388;52.038;-1.478;2023-01-10T07:56:06;65056.88;;;4.24;100.00
44675;BME280;30388;52.038;-1.478;2023-01-10T07:58:33;65075.00;;;4.24;100.00
44675;BME280;30388;52.038;-1.478;2023-01-10T08:01:03;65039.15;;;3.79;100.00
44675;BME280;30388;52.038;-1.478;2023-01-10T08:03:30;64975.58;;;3.42;100.00
44675;BME280;30388;52.038;-1.478;2023-01-10T08:05:58;64983.90;;;3.80;100.00
44675;BME280;30388;52.038;-1.478;2023-01-10T08:08:26;65045.94;;;4.33;100.00
44675;BME280;30388;52.038;-1.478;2023-01-10T08:10:53;65009.12;;;4.12;100.00
44675;BME280;30388;52.038;-1.478;2023-01-10T08:13:20;65026.61;;;4.07;100.00
44675;BME280;30388;52.038;-1.478;2023-01-10T08:15:47;65000.31;;;3.74;100.00
44675;BME280;30388;52.038;-1.478;2023-01-10T08:18:15;65027.18;;;4.08;100.00
44675;BME280;30388;52.038;-1.478;2023-01-10T08:20:42;65030.33;;;4.12;100.00
44675;BME280;30388;52.038;-1.478;2023-01-10T08:23:09;65026.57;;;3.85;100.00
44675;BME280;30388;52.038;-1.478;2023-01-10T08:25:36;65019.84;;;3.98;100.00
44675;BME280;30388;52.038;-1.478;2023-01-10T08:28:04;65049.29;;;4.14;100.00
44675;BME280;30388;52.038;-1.478;2023-01-10T08:30:31;65012.70;;;3.89;100.00
44675;BME280;30388;52.038;-1.478;2023-01-10T08:33:01;65026.62;;;4.08;100.00
44675;BME280;30388;52.038;-1.478;2023-01-10T08:35:28;65026.57;;;4.33;100.00
44675;BME280;30388;52.038;-1.478;2023-01-10T08:37:57;65043.83;;;4.29;100.00
44675;BME280;30388;52.038;-1.478;2023-01-10T08:40:24;65066.92;;;4.37;100.00
44675;BME280;30388;52.038;-1.478;2023-01-10T08:42:56;65107.03;;;4.87;100.00
44675;BME280;30388;52.038;-1.478;2023-01-10T08:45:23;65004.63;;;4.06;100.00
44675;BME280;30388;52.038;-1.478;2023-01-10T08:47:50;65052.83;;;4.40;100.00
44675;BME280;30388;52.038;-1.478;2023-01-10T08:50:18;65066.53;;;4.58;100.00
44675;BME280;30388;52.038;-1.478;2023-01-10T08:52:45;65015.99;;;4.20;100.00
44675;BME280;30388;52.038;-1.478;2023-01-10T08:55:12;65060.35;;;4.50;100.00
44675;BME280;30388;52.038;-1.478;2023-01-10T08:57:39;65076.76;;;4.71;100.00
44675;BME280;30388;52.038;-1.478;2023-01-10T09:00:09;65075.20;;;4.47;100.00
44675;BME280;30388;52.038;-1.478;2023-01-10T09:02:37;65085.59;;;4.60;100.00
44675;BME280;30388;52.038;-1.478;2023-01-10T09:05:05;65104.90;;;4.84;100.00
44675;BME280;30388;52.038;-1.478;2023-01-10T09:07:32;65072.06;;;4.65;100.00
44675;BME280;30388;52.038;-1.478;2023-01-10T09:10:00;65116.29;;;5.21;100.00
44675;BME280;30388;52.038;-1.478;2023-01-10T09:12:27;65113.69;;;4.96;100.00
44675;BME280;30388;52.038;-1.478;2023-01-10T09:14:54;65089.67;;;4.87;100.00
44675;BME280;30388;52.038;-1.478;2023-01-10T09:17:21;65106.69;;;4.86;100.00
44675;BME280;30388;52.038;-1.478;2023-01-10T09:19:49;65145.57;;;5.14;100.00
44675;BME280;30388;52.038;-1.478;2023-01-10T09:22:16;65181.50;;;5.60;100.00
44675;BME280;30388;52.038;-1.478;2023-01-10T09:24:43;65155.03;;;5.48;100.00
44675;BME280;30388;52.038;-1.478;2023-01-10T09:27:10;65105.77;;;4.86;100.00
44675;BME280;30388;52.038;-1.478;2023-01-10T09:29:38;65106.76;;;4.86;100.00
44675;BME280;30388;52.038;-1.478;2023-01-10T09:32:05;65110.41;;;4.43;100.00
44675;BME280;30388;52.038;-1.478;2023-01-10T09:34:32;65160.87;;;5.07;100.00
44675;BME280;30388;52.038;-1.478;2023-01-10T09:36:59;65161.19;;;5.07;100.00
44675;BME280;30388;52.038;-1.478;2023-01-10T09:39:26;65115.89;;;4.99;100.00
44675;BME280;30388;52.038;-1.478;2023-01-10T09:42:05;65113.62;;;4.96;100.00
44675;BME280;30388;52.038;-1.478;2023-01-10T09:44:44;65092.79;;;4.68;100.00
44675;BME280;30388;52.038;-1.478;2023-01-10T09:47:19;65137.93;;;5.26;100.00
44675;BME280;30388;52.038;-1.478;2023-01-10T09:50:01;65168.54;;;5.17;100.00
44675;BME280;30388;52.038;-1.478;2023-01-10T09:52:33;65187.78;;;5.41;100.00
44675;BME280;30388;52.038;-1.478;2023-01-10T09:55:14;65162.04;;;5.57;100.00
44675;BME280;30388;52.038;-1.478;2023-01-10T09:57:42;65119.76;;;5.03;100.00
44675;BME280;30388;52.038;-1.478;2023-01-10T10:00:16;65082.13;;;4.55;100.00
44675;BME280;30388;52.038;-1.478;2023-01-10T10:02:48;65112.17;;;4.94;100.00
44675;BME280;30388;52.038;-1.478;2023-01-10T10:05:20;65166.05;;;5.13;100.00
44675;BME280;30388;52.038;-1.478;2023-01-10T10:07:53;65154.85;;;5.48;100.00
44675;BME280;30388;52.038;-1.478;2023-01-10T10:10:23;65151.44;;;4.95;100.00
44675;BME280;30388;52.038;-1.478;2023-01-10T10:13:03;65142.23;;;5.10;100.00
44675;BME280;30388;52.038;-1.478;2023-01-10T10:15:41;65080.61;;;4.54;100.00
44675;BME280;30388;52.038;-1.478;2023-01-10T10:18:22;65159.24;;;5.31;100.00
44675;BME280;30388;52.038;-1.478;2023-01-10T10:20:57;65171.71;;;5.21;100.00
44675;BME280;30388;52.038;-1.478;2023-01-10T10:24:14;65169.83;;;5.45;100.00
44675;BME280;30388;52.038;-1.478;2023-01-10T10:26:50;65185.38;;;5.37;100.00
44675;BME280;30388;52.038;-1.478;2023-01-10T10:29:40;65212.99;;;5.73;100.00
44675;BME280;30388;52.038;-1.478;2023-01-10T10:32:30;65228.21;;;5.93;100.00
44675;BME280;30388;52.038;-1.478;2023-01-10T10:35:04;65209.95;;;5.69;100.00
44675;BME280;30388;52.038;-1.478;2023-01-10T10:37:37;65263.87;;;6.15;100.00
44675;BME280;30388;52.038;-1.478;2023-01-10T10:40:15;65237.39;;;6.07;100.00
44675;BME280;30388;52.038;-1.478;2023-01-10T10:42:45;65248.46;;;6.19;100.00
44675;BME280;30388;52.038;-1.478;2023-01-10T10:45:18;65285.43;;;6.43;100.00
44675;BME280;30388;52.038;-1.478;2023-01-10T10:47:56;65289.71;;;6.48;100.00
44675;BME280;30388;52.038;-1.478;2023-01-10T10:50:31;65325.42;;;6.45;100.00
44675;BME280;30388;52.038;-1.478;2023-01-10T10:53:00;65320.07;;;6.66;100.00
44675;BME280;30388;52.038;-1.478;2023-01-10T10:55:30;65327.64;;;6.75;100.00
44675;BME280;30388;52.038;-1.478;2023-01-10T10:58:00;65337.27;;;6.60;100.00
44675;BME280;30388;52.038;-1.478;2023-01-10T11:00:29;65336.49;;;6.38;100.00
44675;BME280;30388;52.038;-1.478;2023-01-10T11:03:00;65367.23;;;6.76;100.00
44675;BME280;30388;52.038;-1.478;2023-01-10T11:05:34;65363.75;;;6.72;100.00
44675;BME280;30388;52.038;-1.478;2023-01-10T11:08:05;65376.10;;;6.87;100.00
44675;BME280;30388;52.038;-1.478;2023-01-10T11:10:33;65393.49;;;7.09;100.00
44675;BME280;30388;52.038;-1.478;2023-01-10T11:13:04;65394.42;;;7.11;100.00
44675;BME280;30388;52.038;-1.478;2023-01-10T11:15:36;65453.91;;;7.59;100.00
44675;BME280;30388;52.038;-1.478;2023-01-10T11:18:08;65458.24;;;7.65;100.00
44675;BME280;30388;52.038;-1.478;2023-01-10T11:20:36;65436.42;;;7.38;100.00
44675;BME280;30388;52.038;-1.478;2023-01-10T11:23:03;65403.42;;;7.22;100.00
44675;BME280;30388;52.038;-1.478;2023-01-10T11:25:36;65390.38;;;7.28;100.00
44675;BME280;30388;52.038;-1.478;2023-01-10T11:28:03;65435.07;;;7.63;100.00
44675;BME280;30388;52.038;-1.478;2023-01-10T11:30:31;65443.01;;;7.73;100.00
44675;BME280;30388;52.038;-1.478;2023-01-10T11:33:01;65444.09;;;7.48;100.00
44675;BME280;30388;52.038;-1.478;2023-01-10T11:35:32;65465.28;;;8.00;100.00
44675;BME280;30388;52.038;-1.478;2023-01-10T11:38:02;65488.04;;;8.03;100.00
44675;BME280;30388;52.038;-1.478;2023-01-10T11:40:30;65463.11;;;7.97;100.00
44675;BME280;30388;52.038;-1.478;2023-01-10T11:42:59;65489.56;;;8.32;100.00
44675;BME280;30388;52.038;-1.478;2023-01-10T11:45:29;65511.23;;;8.10;100.00
44675;BME280;30388;52.038;-1.478;2023-01-10T11:48:05;65492.82;;;7.86;100.00
44675;BME280;30388;52.038;-1.478;2023-01-10T11:50:36;65524.88;;;8.26;100.00
44675;BME280;30388;52.038;-1.478;2023-01-10T11:53:04;65550.11;;;8.59;100.00
44675;BME280;30388;52.038;-1.478;2023-01-10T11:55:34;65561.23;;;8.50;100.00
44675;BME280;30388;52.038;-1.478;2023-01-10T11:58:11;65604.55;;;8.79;100.00
44675;BME280;30388;52.038;-1.478;2023-01-10T12:00:42;65605.70;;;9.29;100.00
44675;BME280;30388;52.038;-1.478;2023-01-10T12:03:21;65586.34;;;8.83;100.00
44675;BME280;30388;52.038;-1.478;2023-01-10T12:05:52;65585.19;;;8.81;100.00
44675;BME280;30388;52.038;-1.478;2023-01-10T12:08:26;65576.01;;;8.92;100.00
44675;BME280;30388;52.038;-1.478;2023-01-10T12:10:58;65581.27;;;8.76;100.00
44675;BME280;30388;52.038;-1.478;2023-01-10T12:13:27;65596.56;;;8.95;100.00
44675;BME280;30388;52.038;-1.478;2023-01-10T12:16:14;65607.18;;;8.81;100.00
44675;BME280;30388;52.038;-1.478;2023-01-10T12:18:41;65632.44;;;9.14;100.00
44675;BME280;30388;52.038;-1.478;2023-01-10T12:21:11;65605.56;;;9.29;100.00
44675;BME280;30388;52.038;-1.478;2023-01-10T12:23:41;65614.16;;;8.91;100.00
44675;BME280;30388;52.038;-1.478;2023-01-10T12:26:11;65653.20;;;9.41;100.00
44675;BME280;30388;52.038;-1.478;2023-01-10T12:28:41;65642.24;;;9.27;100.00
44675;BME280;30388;52.038;-1.478;2023-01-10T12:31:12;65629.62;;;9.11;100.00
44675;BME280;30388;52.038;-1.478;2023-01-10T12:33:43;65664.00;;;9.54;100.00
44675;BME280;30388;52.038;-1.478;2023-01-10T12:36:18;65689.57;;;9.64;100.00
44675;BME280;30388;52.038;-1.478;2023-01-10T12:38:56;65647.33;;;9.34;100.00
44675;BME280;30388;52.038;-1.478;2023-01-10T12:41:33;65659.21;;;9.48;100.00
44675;BME280;30388;52.038;-1.478;2023-01-10T12:44:09;65691.59;;;9.67;100.00
44675;BME280;30388;52.038;-1.478;2023-01-10T12:46:43;65707.80;;;9.65;100.00
44675;BME280;30388;52.038;-1.478;2023-01-10T12:49:17;65660.04;;;9.27;100.00
44675;BME280;30388;52.038;-1.478;2023-01-10T12:51:48;65665.39;;;9.56;100.00
44675;BME280;30388;52.038;-1.478;2023-01-10T12:54:20;65676.08;;;9.70;100.00
44675;BME280;30388;52.038;-1.478;2023-01-10T12:56:49;65749.66;;;10.18;100.00
44675;BME280;30388;52.038;-1.478;2023-01-10T12:59:18;65680.34;;;9.75;100.00
44675;BME280;30388;52.038;-1.478;2023-01-10T13:01:52;65737.18;;;10.02;100.00
44675;BME280;30388;52.038;-1.478;2023-01-10T13:04:21;65705.01;;;10.06;100.00
44675;BME280;30388;52.038;-1.478;2023-01-10T13:06:51;65657.85;;;9.46;100.00
44675;BME280;30388;52.038;-1.478;2023-01-10T13:09:20;65651.78;;;9.39;100.00